createdAt,value
2022-12-28T00:02:48.285Z,5.10
2022-12-28T00:06:12.694Z,5.10
2022-12-28T00:09:36.624Z,5.10
2022-12-28T00:13:00.576Z,5.20
2022-12-28T00:16:29.642Z,5.20
2022-12-28T00:19:53.688Z,5.20
2022-12-28T00:23:17.577Z,5.20
2022-12-28T00:26:41.556Z,5.20
2022-12-28T00:30:06.327Z,5.30
2022-12-28T00:33:32.298Z,5.40
2022-12-28T00:37:12.318Z,5.30
2022-12-28T00:40:36.548Z,5.40
2022-12-28T00:44:00.571Z,5.40
2022-12-28T00:47:27.006Z,5.40
2022-12-28T00:50:52.063Z,5.50
2022-12-28T00:54:16.897Z,5.50
2022-12-28T00:57:41.858Z,5.60
2022-12-28T01:01:07.926Z,5.60
2022-12-28T01:04:31.577Z,5.60
2022-12-28T01:07:56.987Z,5.60
2022-12-28T01:11:23.249Z,5.60
2022-12-28T01:14:46.873Z,5.70
2022-12-28T01:18:10.630Z,5.70
2022-12-28T01:21:37.312Z,5.70
2022-12-28T01:25:02.972Z,5.70
2022-12-28T01:28:26.634Z,5.70
2022-12-28T01:31:52.773Z,5.70
2022-12-28T01:35:16.682Z,5.70
2022-12-28T01:38:40.613Z,5.80
2022-12-28T01:42:08.621Z,5.80
2022-12-28T01:45:35.450Z,5.90
2022-12-28T01:49:03.543Z,5.90
2022-12-28T01:52:33.179Z,5.90
2022-12-28T01:55:57.766Z,6.00
2022-12-28T01:59:31.647Z,6.00
2022-12-28T02:02:58.335Z,6.00
2022-12-28T02:06:22.738Z,6.00
2022-12-28T02:10:43.455Z,5.90
2022-12-28T02:13:32.803Z,5.90
2022-12-28T02:16:58.420Z,5.80
2022-12-28T02:20:23.648Z,5.80
2022-12-28T02:24:30.936Z,5.80
2022-12-28T02:28:07.560Z,5.80
2022-12-28T02:31:38.928Z,5.80
2022-12-28T02:35:08.130Z,5.80
2022-12-28T02:38:37.789Z,5.80
2022-12-28T02:42:02.480Z,5.80
2022-12-28T02:45:57.036Z,5.90
2022-12-28T02:49:41.905Z,5.90
2022-12-28T02:53:31.504Z,5.90
2022-12-28T02:57:00.274Z,5.90
2022-12-28T03:00:27.374Z,5.90
2022-12-28T03:04:06.080Z,5.80
2022-12-28T03:07:59.195Z,5.80
2022-12-28T03:11:28.541Z,5.80
2022-12-28T03:14:57.737Z,5.80
2022-12-28T03:18:57.002Z,5.90
2022-12-28T03:22:42.411Z,5.90
2022-12-28T03:26:29.981Z,5.90
2022-12-28T03:30:19.013Z,6.00
2022-12-28T03:33:46.515Z,6.00
2022-12-28T03:37:16.261Z,6.10
2022-12-28T03:40:49.316Z,6.10
2022-12-28T03:44:24.484Z,6.20
2022-12-28T03:47:51.173Z,6.30
2022-12-28T03:51:18.022Z,6.40
2022-12-28T03:54:44.203Z,6.40
2022-12-28T03:58:11.643Z,6.50
2022-12-28T04:01:37.214Z,6.50
2022-12-28T04:05:01.815Z,6.60
2022-12-28T04:08:26.033Z,6.60
2022-12-28T04:11:50.864Z,6.70
2022-12-28T04:15:22.937Z,6.80
2022-12-28T04:18:49.177Z,6.80
2022-12-28T04:22:12.813Z,6.80
2022-12-28T04:25:36.820Z,6.90
2022-12-28T04:29:02.451Z,6.90
2022-12-28T04:32:46.827Z,6.90
2022-12-28T04:36:14.942Z,6.90
2022-12-28T04:39:56.204Z,6.80
2022-12-28T04:43:21.894Z,6.80
2022-12-28T04:46:45.873Z,6.80
2022-12-28T04:50:10.426Z,6.80
2022-12-28T04:53:39.049Z,6.90
2022-12-28T04:57:02.904Z,6.90
2022-12-28T05:00:26.902Z,6.90
2022-12-28T05:03:55.871Z,7.00
2022-12-28T05:07:21.906Z,7.00
2022-12-28T05:10:50.135Z,7.00
2022-12-28T05:14:13.899Z,7.00
2022-12-28T05:17:37.904Z,7.00
2022-12-28T05:21:02.926Z,7.00
2022-12-28T05:24:26.908Z,7.00
2022-12-28T05:27:52.512Z,7.00
2022-12-28T05:31:19.035Z,7.00
2022-12-28T05:34:42.613Z,6.90
2022-12-28T05:38:06.915Z,6.90
2022-12-28T05:41:31.707Z,6.90
2022-12-28T05:45:04.924Z,6.90
2022-12-28T05:48:31.163Z,6.90
2022-12-28T05:51:54.691Z,6.90
2022-12-28T05:55:19.126Z,6.80
2022-12-28T05:58:43.168Z,6.80
2022-12-28T06:02:08.404Z,6.80
2022-12-28T06:05:33.076Z,6.80
2022-12-28T06:08:57.287Z,6.80
2022-12-28T06:12:20.913Z,6.80
2022-12-28T06:15:47.251Z,6.70
2022-12-28T06:19:15.622Z,6.70
2022-12-28T06:22:40.016Z,6.80
2022-12-28T06:26:07.436Z,6.80
2022-12-28T06:29:34.283Z,6.80
2022-12-28T06:32:58.187Z,6.80
2022-12-28T06:36:24.965Z,6.90
2022-12-28T06:39:48.515Z,6.90
2022-12-28T06:43:13.022Z,6.90
2022-12-28T06:46:37.803Z,7.00
2022-12-28T06:50:01.979Z,7.00
2022-12-28T06:53:29.588Z,7.00
2022-12-28T06:56:53.230Z,7.00
2022-12-28T07:00:19.924Z,7.10
2022-12-28T07:03:44.602Z,7.10
2022-12-28T07:07:10.300Z,7.10
2022-12-28T07:10:36.589Z,7.10
2022-12-28T07:14:01.045Z,7.20
2022-12-28T07:17:25.136Z,7.20
2022-12-28T07:20:51.325Z,7.30
2022-12-28T07:24:15.022Z,7.30
2022-12-28T07:27:40.359Z,7.30
2022-12-28T07:31:08.150Z,7.40
2022-12-28T07:34:32.357Z,7.40
2022-12-28T07:37:58.220Z,7.40
2022-12-28T07:41:23.757Z,7.50
2022-12-28T07:44:49.565Z,7.50
2022-12-28T07:48:14.462Z,7.50
2022-12-28T07:51:39.627Z,7.50
2022-12-28T07:55:04.234Z,7.60
2022-12-28T07:58:28.156Z,7.50
2022-12-28T08:01:53.917Z,7.60
2022-12-28T08:05:18.045Z,7.60
2022-12-28T08:08:44.255Z,7.70
2022-12-28T08:12:08.222Z,7.70
2022-12-28T08:15:35.268Z,7.80
2022-12-28T08:19:00.852Z,7.80
2022-12-28T08:22:25.360Z,7.90
2022-12-28T08:25:49.606Z,7.90
2022-12-28T08:29:16.923Z,7.90
2022-12-28T08:32:41.069Z,7.90
2022-12-28T08:36:07.936Z,7.90
2022-12-28T08:39:32.228Z,8.00
2022-12-28T08:42:58.475Z,8.00
2022-12-28T08:46:23.513Z,8.00
2022-12-28T08:49:47.129Z,8.00
2022-12-28T08:53:12.108Z,8.00
2022-12-28T08:56:37.756Z,8.00
2022-12-28T09:00:01.833Z,8.00
2022-12-28T09:03:25.732Z,8.00
2022-12-28T09:06:50.060Z,8.10
2022-12-28T09:10:15.141Z,8.00
2022-12-28T09:13:39.668Z,8.10
2022-12-28T09:17:03.777Z,8.20
2022-12-28T09:20:27.681Z,8.10
2022-12-28T09:23:52.632Z,8.20
2022-12-28T09:27:17.632Z,8.20
2022-12-28T09:30:41.327Z,8.20
2022-12-28T09:37:49.238Z,8.20
2022-12-28T09:41:22.520Z,8.20
2022-12-28T09:44:58.224Z,8.20
2022-12-28T09:48:26.502Z,8.20
2022-12-28T09:51:55.713Z,8.20
2022-12-28T09:55:20.435Z,8.20
2022-12-28T09:58:48.044Z,8.30
2022-12-28T10:02:21.485Z,8.20
2022-12-28T10:05:45.443Z,8.20
2022-12-28T10:09:17.153Z,8.20
2022-12-28T10:12:43.541Z,8.30
2022-12-28T10:16:12.937Z,8.30
2022-12-28T10:19:38.014Z,8.30
2022-12-28T10:23:01.690Z,8.30
2022-12-28T10:26:28.399Z,8.30
2022-12-28T10:29:53.005Z,8.30
2022-12-28T10:33:20.676Z,8.20
2022-12-28T10:36:46.228Z,8.30
2022-12-28T10:40:24.561Z,8.30
2022-12-28T10:44:21.602Z,8.30
2022-12-28T10:47:44.330Z,8.30
2022-12-28T10:51:14.945Z,8.40
2022-12-28T10:54:39.831Z,8.30
2022-12-28T10:58:34.224Z,8.40
2022-12-28T11:02:24.746Z,8.30
2022-12-28T11:05:57.185Z,8.30
2022-12-28T11:09:24.188Z,8.30
2022-12-28T11:12:49.508Z,8.30
2022-12-28T11:16:15.631Z,8.40
2022-12-28T11:19:39.259Z,8.40
2022-12-28T11:23:05.899Z,8.40
2022-12-28T11:26:31.245Z,8.50
2022-12-28T11:29:56.947Z,8.50
2022-12-28T11:33:27.870Z,8.60
2022-12-28T11:36:52.034Z,8.60
2022-12-28T11:40:50.483Z,8.70
2022-12-28T11:44:25.206Z,8.80
2022-12-28T11:47:50.188Z,8.80
2022-12-28T11:51:18.279Z,8.90
2022-12-28T11:54:53.076Z,9.00
2022-12-28T11:58:50.296Z,9.10
2022-12-28T12:02:41.358Z,9.10
2022-12-28T12:06:07.027Z,9.10
2022-12-28T12:09:44.570Z,9.20
2022-12-28T12:13:40.242Z,9.20
2022-12-28T12:17:07.811Z,9.20
2022-12-28T12:20:53.048Z,9.20
2022-12-28T12:24:26.478Z,9.20
2022-12-28T12:27:54.786Z,9.20
2022-12-28T12:31:27.315Z,9.30
2022-12-28T12:34:53.292Z,9.30
2022-12-28T12:38:32.490Z,9.30
2022-12-28T12:42:09.885Z,9.40
2022-12-28T12:45:41.926Z,9.40
2022-12-28T12:49:26.692Z,9.40
2022-12-28T12:53:01.466Z,9.40
2022-12-28T12:56:37.124Z,9.50
2022-12-28T13:00:12.067Z,9.50
2022-12-28T13:03:41.906Z,9.50
2022-12-28T13:07:07.443Z,9.50
2022-12-28T13:10:34.560Z,9.60
2022-12-28T13:13:58.516Z,9.60
2022-12-28T13:17:23.682Z,9.60
2022-12-28T13:20:54.996Z,9.60
2022-12-28T13:24:23.911Z,9.60
2022-12-28T13:27:47.653Z,9.60
2022-12-28T13:31:17.335Z,9.60
2022-12-28T13:34:50.660Z,9.60
2022-12-28T13:38:16.350Z,9.60
2022-12-28T13:41:48.147Z,9.60
2022-12-28T13:45:17.419Z,9.60
2022-12-28T13:48:43.858Z,9.60
2022-12-28T13:52:12.828Z,9.60
2022-12-28T13:55:41.141Z,9.60
2022-12-28T13:59:08.532Z,9.60
2022-12-28T14:02:33.266Z,9.60
2022-12-28T14:06:00.870Z,9.60
2022-12-28T14:09:26.059Z,9.70
2022-12-28T14:12:50.496Z,9.60
2022-12-28T14:16:14.372Z,9.60
2022-12-28T14:19:38.384Z,9.60
2022-12-28T14:23:19.975Z,9.60
2022-12-28T14:26:50.697Z,9.60
2022-12-28T14:30:26.318Z,9.50
2022-12-28T14:33:53.553Z,9.50
2022-12-28T14:37:25.758Z,9.40
2022-12-28T14:40:54.592Z,9.30
2022-12-28T14:44:26.420Z,9.20
2022-12-28T14:47:57.116Z,9.20
2022-12-28T14:51:30.018Z,9.10
2022-12-28T14:54:55.389Z,9.10
2022-12-28T14:58:23.525Z,9.20
2022-12-28T15:01:49.555Z,9.20
2022-12-28T15:05:36.612Z,9.10
2022-12-28T15:09:01.260Z,9.10
2022-12-28T15:12:24.864Z,9.20
2022-12-28T15:15:54.785Z,9.20
2022-12-28T15:19:19.687Z,9.10
2022-12-28T15:22:43.536Z,9.10
2022-12-28T15:26:08.638Z,9.10
2022-12-28T15:29:56.224Z,9.10
2022-12-28T15:33:16.417Z,9.10
2022-12-28T15:36:42.496Z,9.10
2022-12-28T15:40:07.529Z,9.10
2022-12-28T15:43:31.083Z,9.10
2022-12-28T15:46:54.878Z,9.10
2022-12-28T15:50:18.556Z,9.10
2022-12-28T15:53:43.523Z,9.10
2022-12-28T15:57:07.077Z,9.10
2022-12-28T16:00:30.803Z,9.10
2022-12-28T16:03:56.114Z,9.10
2022-12-28T16:07:20.542Z,9.10
2022-12-28T16:10:45.433Z,9.20
2022-12-28T16:14:13.993Z,9.20
2022-12-28T16:17:46.905Z,9.20
2022-12-28T16:21:15.295Z,9.20
2022-12-28T16:24:38.855Z,9.20
2022-12-28T16:28:03.752Z,9.10
2022-12-28T16:31:28.841Z,9.10
2022-12-28T16:34:54.489Z,9.10
2022-12-28T16:38:19.782Z,9.10
2022-12-28T16:41:44.065Z,9.20
2022-12-28T16:45:09.793Z,9.20
2022-12-28T16:48:33.799Z,9.20
2022-12-28T16:51:57.725Z,9.20
2022-12-28T16:55:21.574Z,9.10
2022-12-28T16:58:49.123Z,9.10
2022-12-28T17:02:15.034Z,9.10
2022-12-28T17:05:39.054Z,9.20
2022-12-28T17:09:02.744Z,9.10
2022-12-28T17:12:26.295Z,9.10
2022-12-28T17:15:50.208Z,9.10
2022-12-28T17:19:15.796Z,9.10
2022-12-28T17:22:39.544Z,9.10
2022-12-28T17:26:03.129Z,9.10
2022-12-28T17:29:26.695Z,9.10
2022-12-28T17:32:50.191Z,9.20
2022-12-28T17:36:15.226Z,9.10
2022-12-28T17:39:40.547Z,9.10
2022-12-28T17:43:04.244Z,9.10
2022-12-28T17:46:29.637Z,9.20
2022-12-28T17:49:53.275Z,9.20
2022-12-28T17:53:18.286Z,9.20
2022-12-28T17:56:42.456Z,9.20
2022-12-28T18:00:06.777Z,9.20
2022-12-28T18:03:36.468Z,9.30
2022-12-28T18:07:00.177Z,9.30
2022-12-28T18:10:25.154Z,9.30
2022-12-28T18:13:49.544Z,9.30
2022-12-28T18:17:13.455Z,9.30
2022-12-28T18:20:37.285Z,9.30
2022-12-28T18:24:00.788Z,9.40
2022-12-28T18:27:25.705Z,9.40
2022-12-28T18:30:49.220Z,9.40
2022-12-28T18:34:12.786Z,9.40
2022-12-28T18:37:36.451Z,9.40
2022-12-28T18:41:00.997Z,9.40
2022-12-28T18:44:26.349Z,9.40
2022-12-28T18:47:49.966Z,9.30
2022-12-28T18:51:17.015Z,9.20
2022-12-28T18:54:40.542Z,9.20
2022-12-28T18:58:04.206Z,9.10
2022-12-28T19:05:14.738Z,9.00
2022-12-28T19:08:40.895Z,8.90
2022-12-28T19:12:04.921Z,8.90
2022-12-28T19:15:29.967Z,8.90
2022-12-28T19:18:54.961Z,8.80
2022-12-28T19:22:18.540Z,8.80
2022-12-28T19:25:42.133Z,8.80
2022-12-28T19:29:06.041Z,8.70
2022-12-28T19:32:30.549Z,8.70
2022-12-28T19:35:55.481Z,8.70
2022-12-28T19:39:19.603Z,8.70
2022-12-28T19:42:43.152Z,8.60
2022-12-28T19:46:09.208Z,8.60
2022-12-28T19:49:32.784Z,8.60
2022-12-28T19:52:57.710Z,8.60
2022-12-28T19:56:21.992Z,8.60
2022-12-28T19:59:45.712Z,8.60
2022-12-28T20:03:10.336Z,8.50
2022-12-28T20:06:39.228Z,8.60
2022-12-28T20:10:04.269Z,8.60
2022-12-28T20:13:27.901Z,8.50
2022-12-28T20:16:52.419Z,8.50
2022-12-28T20:20:17.674Z,8.50
2022-12-28T20:23:42.597Z,8.50
2022-12-28T20:27:07.503Z,8.50
2022-12-28T20:30:32.536Z,8.50
2022-12-28T20:33:56.459Z,8.50
2022-12-28T20:37:20.088Z,8.50
2022-12-28T20:40:43.649Z,8.40
2022-12-28T20:44:10.874Z,8.40
2022-12-28T20:47:34.478Z,8.40
2022-12-28T20:50:59.276Z,8.40
2022-12-28T20:54:23.381Z,8.40
2022-12-28T20:57:47.175Z,8.40
2022-12-28T21:01:13.981Z,8.40
2022-12-28T21:04:38.835Z,8.40
2022-12-28T21:08:02.420Z,8.40
2022-12-28T21:11:26.354Z,8.40
2022-12-28T21:14:49.952Z,8.40
2022-12-28T21:18:14.897Z,8.40
2022-12-28T21:21:38.467Z,8.50
2022-12-28T21:25:02.031Z,8.50
2022-12-28T21:28:25.560Z,8.50
2022-12-28T21:31:49.233Z,8.60
2022-12-28T21:35:14.150Z,8.60
2022-12-28T21:38:39.550Z,8.70
2022-12-28T21:42:03.066Z,8.70
2022-12-28T21:45:26.693Z,8.80
2022-12-28T21:48:50.211Z,8.90
2022-12-28T21:52:15.136Z,8.90
2022-12-28T21:55:44.436Z,9.00
2022-12-28T21:59:08.264Z,9.00
2022-12-28T22:02:50.277Z,9.10
2022-12-28T22:06:13.933Z,9.20
2022-12-28T22:09:56.039Z,9.20
2022-12-28T22:13:19.580Z,9.30
2022-12-28T22:16:43.217Z,9.30
2022-12-28T22:20:07.631Z,9.40
2022-12-28T22:23:34.528Z,9.40
2022-12-28T22:27:00.062Z,9.50
2022-12-28T22:30:23.957Z,9.50
2022-12-28T22:33:47.535Z,9.60
2022-12-28T22:37:12.857Z,9.60
2022-12-28T22:40:36.438Z,9.70
2022-12-28T22:44:01.455Z,9.70
2022-12-28T22:47:27.812Z,9.70
2022-12-28T22:50:51.482Z,9.80
2022-12-28T22:54:14.977Z,9.70
2022-12-28T22:57:38.615Z,9.80
2022-12-28T23:01:09.599Z,9.80
2022-12-28T23:04:33.371Z,9.80
2022-12-28T23:07:56.913Z,9.80
2022-12-28T23:11:34.537Z,9.90
2022-12-28T23:15:15.384Z,9.90
2022-12-28T23:18:58.591Z,9.90
2022-12-28T23:22:42.599Z,9.90
2022-12-28T23:26:27.484Z,10.00
2022-12-28T23:29:52.163Z,10.00
2022-12-28T23:33:15.873Z,10.00
2022-12-28T23:36:40.755Z,10.00
2022-12-28T23:40:04.616Z,10.00
2022-12-28T23:43:28.238Z,10.10
2022-12-28T23:46:58.656Z,10.10
2022-12-28T23:50:23.068Z,10.10
2022-12-28T23:53:47.945Z,10.10
2022-12-28T23:57:11.627Z,10.10
